sensor_id;sensor_type;location;lat;lon;timestamp;P1;durP1;ratioP1;P2;durP2;ratioP2
31724;SDS011;18306;40.960;14.836;2022-08-03T00:00:53;3.35;;;2.13;;
31724;SDS011;18306;40.960;14.836;2022-08-03T00:03:21;3.88;;;1.92;;
31724;SDS011;18306;40.960;14.836;2022-08-03T00:05:48;5.00;;;2.13;;
31724;SDS011;18306;40.960;14.836;2022-08-03T00:08:15;3.08;;;2.30;;
31724;SDS011;18306;40.960;14.836;2022-08-03T00:10:42;2.28;;;2.05;;
31724;SDS011;18306;40.960;14.836;2022-08-03T00:13:10;3.20;;;1.70;;
31724;SDS011;18306;40.960;14.836;2022-08-03T00:15:39;4.65;;;1.67;;
31724;SDS011;18306;40.960;14.836;2022-08-03T00:18:07;3.00;;;2.13;;
31724;SDS011;18306;40.960;14.836;2022-08-03T00:20:34;2.83;;;2.15;;
31724;SDS011;18306;40.960;14.836;2022-08-03T00:23:02;2.80;;;1.75;;
31724;SDS011;18306;40.960;14.836;2022-08-03T00:25:30;6.13;;;1.88;;
31724;SDS011;18306;40.960;14.836;2022-08-03T00:27:57;5.65;;;1.98;;
31724;SDS011;18306;40.960;14.836;2022-08-03T00:30:24;2.05;;;1.45;;
31724;SDS011;18306;40.960;14.836;2022-08-03T00:32:51;1.83;;;1.52;;
31724;SDS011;18306;40.960;14.836;2022-08-03T00:35:18;1.90;;;1.65;;
31724;SDS011;18306;40.960;14.836;2022-08-03T00:37:46;3.22;;;1.85;;
31724;SDS011;18306;40.960;14.836;2022-08-03T00:40:13;2.30;;;1.75;;
31724;SDS011;18306;40.960;14.836;2022-08-03T00:42:48;2.55;;;1.85;;
31724;SDS011;18306;40.960;14.836;2022-08-03T00:45:20;3.33;;;1.88;;
31724;SDS011;18306;40.960;14.836;2022-08-03T00:47:49;3.90;;;1.67;;
31724;SDS011;18306;40.960;14.836;2022-08-03T00:50:18;3.67;;;2.67;;
31724;SDS011;18306;40.960;14.836;2022-08-03T00:52:48;2.72;;;1.67;;
31724;SDS011;18306;40.960;14.836;2022-08-03T00:55:19;4.57;;;2.55;;
31724;SDS011;18306;40.960;14.836;2022-08-03T00:57:47;2.28;;;1.67;;
31724;SDS011;18306;40.960;14.836;2022-08-03T01:00:16;1.98;;;1.50;;
31724;SDS011;18306;40.960;14.836;2022-08-03T01:02:44;5.65;;;1.90;;
31724;SDS011;18306;40.960;14.836;2022-08-03T01:05:12;10.82;;;2.10;;
31724;SDS011;18306;40.960;14.836;2022-08-03T01:10:44;4.85;;;2.10;;
31724;SDS011;18306;40.960;14.836;2022-08-03T01:18:54;3.85;;;2.30;;
31724;SDS011;18306;40.960;14.836;2022-08-03T01:26:49;3.22;;;1.85;;
31724;SDS011;18306;40.960;14.836;2022-08-03T01:32:25;7.88;;;2.90;;
31724;SDS011;18306;40.960;14.836;2022-08-03T01:35:02;4.85;;;1.95;;
31724;SDS011;18306;40.960;14.836;2022-08-03T01:37:41;1.60;;;1.33;;
31724;SDS011;18306;40.960;14.836;2022-08-03T01:42:50;7.70;;;2.38;;
31724;SDS011;18306;40.960;14.836;2022-08-03T01:45:19;4.28;;;1.65;;
31724;SDS011;18306;40.960;14.836;2022-08-03T01:47:49;2.20;;;1.77;;
31724;SDS011;18306;40.960;14.836;2022-08-03T01:50:18;3.53;;;1.98;;
31724;SDS011;18306;40.960;14.836;2022-08-03T01:52:49;4.43;;;2.38;;
31724;SDS011;18306;40.960;14.836;2022-08-03T01:55:18;3.25;;;2.58;;
31724;SDS011;18306;40.960;14.836;2022-08-03T01:57:47;3.47;;;2.53;;
31724;SDS011;18306;40.960;14.836;2022-08-03T02:00:15;3.33;;;2.38;;
31724;SDS011;18306;40.960;14.836;2022-08-03T02:02:44;2.65;;;1.77;;
31724;SDS011;18306;40.960;14.836;2022-08-03T02:05:14;2.85;;;1.80;;
31724;SDS011;18306;40.960;14.836;2022-08-03T02:07:43;3.83;;;1.98;;
31724;SDS011;18306;40.960;14.836;2022-08-03T02:10:14;1.38;;;1.25;;
31724;SDS011;18306;40.960;14.836;2022-08-03T02:12:44;2.42;;;1.60;;
31724;SDS011;18306;40.960;14.836;2022-08-03T02:15:14;1.75;;;1.40;;
31724;SDS011;18306;40.960;14.836;2022-08-03T02:17:42;3.22;;;1.42;;
31724;SDS011;18306;40.960;14.836;2022-08-03T02:20:11;2.40;;;1.48;;
31724;SDS011;18306;40.960;14.836;2022-08-03T02:22:39;2.55;;;1.20;;
31724;SDS011;18306;40.960;14.836;2022-08-03T02:25:08;4.78;;;2.08;;
31724;SDS011;18306;40.960;14.836;2022-08-03T02:27:38;3.35;;;1.88;;
31724;SDS011;18306;40.960;14.836;2022-08-03T02:30:16;2.33;;;1.38;;
31724;SDS011;18306;40.960;14.836;2022-08-03T02:32:47;3.42;;;1.88;;
31724;SDS011;18306;40.960;14.836;2022-08-03T02:35:20;2.25;;;1.70;;
31724;SDS011;18306;40.960;14.836;2022-08-03T02:37:51;1.38;;;1.27;;
31724;SDS011;18306;40.960;14.836;2022-08-03T02:40:21;1.67;;;1.45;;
31724;SDS011;18306;40.960;14.836;2022-08-03T02:42:54;1.90;;;1.35;;
31724;SDS011;18306;40.960;14.836;2022-08-03T02:45:29;5.00;;;1.98;;
31724;SDS011;18306;40.960;14.836;2022-08-03T02:48:02;10.77;;;1.77;;
31724;SDS011;18306;40.960;14.836;2022-08-03T02:50:30;2.58;;;1.95;;
31724;SDS011;18306;40.960;14.836;2022-08-03T02:53:00;2.40;;;2.08;;
31724;SDS011;18306;40.960;14.836;2022-08-03T02:55:29;2.15;;;1.80;;
31724;SDS011;18306;40.960;14.836;2022-08-03T02:57:59;1.80;;;1.70;;
31724;SDS011;18306;40.960;14.836;2022-08-03T03:00:30;1.90;;;1.67;;
31724;SDS011;18306;40.960;14.836;2022-08-03T03:03:00;2.33;;;1.95;;
31724;SDS011;18306;40.960;14.836;2022-08-03T03:05:29;2.95;;;2.30;;
31724;SDS011;18306;40.960;14.836;2022-08-03T03:07:57;3.15;;;2.00;;
31724;SDS011;18306;40.960;14.836;2022-08-03T03:10:25;5.88;;;1.83;;
31724;SDS011;18306;40.960;14.836;2022-08-03T03:12:54;2.38;;;2.05;;
31724;SDS011;18306;40.960;14.836;2022-08-03T03:15:26;3.00;;;1.83;;
31724;SDS011;18306;40.960;14.836;2022-08-03T03:17:54;2.28;;;1.85;;
31724;SDS011;18306;40.960;14.836;2022-08-03T03:20:22;2.85;;;1.90;;
31724;SDS011;18306;40.960;14.836;2022-08-03T03:22:50;2.67;;;1.80;;
31724;SDS011;18306;40.960;14.836;2022-08-03T03:25:21;2.70;;;2.20;;
31724;SDS011;18306;40.960;14.836;2022-08-03T03:27:49;1.63;;;1.52;;
31724;SDS011;18306;40.960;14.836;2022-08-03T03:30:19;2.42;;;2.05;;
31724;SDS011;18306;40.960;14.836;2022-08-03T03:32:46;5.57;;;2.53;;
31724;SDS011;18306;40.960;14.836;2022-08-03T03:35:14;7.55;;;2.03;;
31724;SDS011;18306;40.960;14.836;2022-08-03T03:37:41;4.38;;;2.17;;
31724;SDS011;18306;40.960;14.836;2022-08-03T03:40:09;1.58;;;1.48;;
31724;SDS011;18306;40.960;14.836;2022-08-03T03:42:36;2.15;;;1.50;;
31724;SDS011;18306;40.960;14.836;2022-08-03T03:45:04;2.60;;;2.08;;
31724;SDS011;18306;40.960;14.836;2022-08-03T03:47:33;1.92;;;1.30;;
31724;SDS011;18306;40.960;14.836;2022-08-03T03:50:01;2.13;;;1.88;;
31724;SDS011;18306;40.960;14.836;2022-08-03T03:52:33;3.03;;;1.70;;
31724;SDS011;18306;40.960;14.836;2022-08-03T03:55:00;2.03;;;1.48;;
31724;SDS011;18306;40.960;14.836;2022-08-03T03:57:27;2.95;;;1.63;;
31724;SDS011;18306;40.960;14.836;2022-08-03T03:59:54;4.65;;;2.10;;
31724;SDS011;18306;40.960;14.836;2022-08-03T04:02:21;2.38;;;1.65;;
31724;SDS011;18306;40.960;14.836;2022-08-03T04:04:49;2.45;;;1.67;;
31724;SDS011;18306;40.960;14.836;2022-08-03T04:07:40;1.75;;;1.33;;
31724;SDS011;18306;40.960;14.836;2022-08-03T04:10:33;1.35;;;1.25;;
31724;SDS011;18306;40.960;14.836;2022-08-03T04:13:21;2.28;;;1.48;;
31724;SDS011;18306;40.960;14.836;2022-08-03T04:15:50;2.05;;;1.48;;
31724;SDS011;18306;40.960;14.836;2022-08-03T04:18:19;2.53;;;2.30;;
31724;SDS011;18306;40.960;14.836;2022-08-03T04:20:48;4.35;;;2.47;;
31724;SDS011;18306;40.960;14.836;2022-08-03T04:23:18;2.25;;;2.05;;
31724;SDS011;18306;40.960;14.836;2022-08-03T04:25:50;2.60;;;1.92;;
31724;SDS011;18306;40.960;14.836;2022-08-03T04:28:18;1.40;;;1.30;;
31724;SDS011;18306;40.960;14.836;2022-08-03T04:30:47;5.78;;;2.35;;
31724;SDS011;18306;40.960;14.836;2022-08-03T04:33:18;4.93;;;1.50;;
31724;SDS011;18306;40.960;14.836;2022-08-03T04:35:46;2.63;;;1.92;;
31724;SDS011;18306;40.960;14.836;2022-08-03T04:38:15;1.77;;;1.52;;
31724;SDS011;18306;40.960;14.836;2022-08-03T04:40:44;10.23;;;1.83;;
31724;SDS011;18306;40.960;14.836;2022-08-03T04:43:13;4.68;;;1.92;;
31724;SDS011;18306;40.960;14.836;2022-08-03T04:45:45;2.50;;;2.30;;
31724;SDS011;18306;40.960;14.836;2022-08-03T04:48:13;2.95;;;2.15;;
31724;SDS011;18306;40.960;14.836;2022-08-03T04:50:41;1.33;;;1.23;;
31724;SDS011;18306;40.960;14.836;2022-08-03T04:53:08;2.53;;;1.88;;
31724;SDS011;18306;40.960;14.836;2022-08-03T04:55:36;4.90;;;2.42;;
31724;SDS011;18306;40.960;14.836;2022-08-03T04:58:03;2.92;;;2.28;;
31724;SDS011;18306;40.960;14.836;2022-08-03T05:00:31;2.80;;;1.95;;
31724;SDS011;18306;40.960;14.836;2022-08-03T05:02:58;2.05;;;1.85;;
31724;SDS011;18306;40.960;14.836;2022-08-03T05:05:25;2.22;;;2.03;;
31724;SDS011;18306;40.960;14.836;2022-08-03T05:07:55;2.33;;;2.13;;
31724;SDS011;18306;40.960;14.836;2022-08-03T05:10:22;3.40;;;2.00;;
31724;SDS011;18306;40.960;14.836;2022-08-03T05:12:49;3.03;;;2.28;;
31724;SDS011;18306;40.960;14.836;2022-08-03T05:15:17;11.07;;;2.50;;
31724;SDS011;18306;40.960;14.836;2022-08-03T05:17:44;3.35;;;2.80;;
31724;SDS011;18306;40.960;14.836;2022-08-03T05:20:11;4.70;;;1.77;;
31724;SDS011;18306;40.960;14.836;2022-08-03T05:22:38;4.68;;;2.88;;
31724;SDS011;18306;40.960;14.836;2022-08-03T05:25:05;3.70;;;1.95;;
31724;SDS011;18306;40.960;14.836;2022-08-03T05:27:33;3.33;;;2.53;;
31724;SDS011;18306;40.960;14.836;2022-08-03T05:30:00;3.28;;;2.13;;
31724;SDS011;18306;40.960;14.836;2022-08-03T05:32:27;6.35;;;2.22;;
31724;SDS011;18306;40.960;14.836;2022-08-03T05:34:56;10.98;;;2.30;;
31724;SDS011;18306;40.960;14.836;2022-08-03T05:37:30;6.40;;;2.83;;
31724;SDS011;18306;40.960;14.836;2022-08-03T05:40:06;6.60;;;2.63;;
31724;SDS011;18306;40.960;14.836;2022-08-03T05:42:35;10.23;;;2.13;;
31724;SDS011;18306;40.960;14.836;2022-08-03T05:45:03;1.65;;;1.50;;
31724;SDS011;18306;40.960;14.836;2022-08-03T05:47:40;2.25;;;1.80;;
31724;SDS011;18306;40.960;14.836;2022-08-03T05:50:09;5.80;;;1.98;;
31724;SDS011;18306;40.960;14.836;2022-08-03T05:52:38;3.17;;;1.73;;
31724;SDS011;18306;40.960;14.836;2022-08-03T05:55:08;2.00;;;1.77;;
31724;SDS011;18306;40.960;14.836;2022-08-03T05:57:37;4.72;;;1.80;;
31724;SDS011;18306;40.960;14.836;2022-08-03T06:00:08;3.20;;;1.88;;
31724;SDS011;18306;40.960;14.836;2022-08-03T06:02:42;4.85;;;2.17;;
31724;SDS011;18306;40.960;14.836;2022-08-03T06:05:10;3.13;;;2.15;;
31724;SDS011;18306;40.960;14.836;2022-08-03T06:07:47;7.82;;;2.92;;
31724;SDS011;18306;40.960;14.836;2022-08-03T06:10:25;4.18;;;2.78;;
31724;SDS011;18306;40.960;14.836;2022-08-03T06:12:54;7.95;;;3.15;;
31724;SDS011;18306;40.960;14.836;2022-08-03T06:15:22;5.50;;;2.70;;
31724;SDS011;18306;40.960;14.836;2022-08-03T06:17:49;15.57;;;2.97;;
31724;SDS011;18306;40.960;14.836;2022-08-03T06:20:19;28.10;;;3.42;;
31724;SDS011;18306;40.960;14.836;2022-08-03T06:22:46;8.70;;;2.47;;
31724;SDS011;18306;40.960;14.836;2022-08-03T06:25:18;2.45;;;2.00;;
31724;SDS011;18306;40.960;14.836;2022-08-03T06:27:45;5.90;;;2.85;;
31724;SDS011;18306;40.960;14.836;2022-08-03T06:30:13;8.27;;;2.83;;
31724;SDS011;18306;40.960;14.836;2022-08-03T06:32:42;10.65;;;3.45;;
31724;SDS011;18306;40.960;14.836;2022-08-03T06:35:09;7.32;;;4.18;;
31724;SDS011;18306;40.960;14.836;2022-08-03T06:37:43;10.20;;;5.53;;
31724;SDS011;18306;40.960;14.836;2022-08-03T06:40:11;4.50;;;3.88;;
31724;SDS011;18306;40.960;14.836;2022-08-03T06:42:40;8.20;;;4.65;;
31724;SDS011;18306;40.960;14.836;2022-08-03T06:45:11;6.80;;;4.90;;
31724;SDS011;18306;40.960;14.836;2022-08-03T06:47:38;9.43;;;5.03;;
31724;SDS011;18306;40.960;14.836;2022-08-03T06:50:06;6.07;;;4.35;;
31724;SDS011;18306;40.960;14.836;2022-08-03T06:52:34;5.32;;;3.83;;
31724;SDS011;18306;40.960;14.836;2022-08-03T06:55:01;11.30;;;4.25;;
31724;SDS011;18306;40.960;14.836;2022-08-03T06:57:37;7.40;;;4.55;;
31724;SDS011;18306;40.960;14.836;2022-08-03T07:00:05;5.97;;;3.50;;
31724;SDS011;18306;40.960;14.836;2022-08-03T07:02:34;4.45;;;4.03;;
31724;SDS011;18306;40.960;14.836;2022-08-03T07:05:01;5.75;;;3.80;;
31724;SDS011;18306;40.960;14.836;2022-08-03T07:07:28;8.10;;;4.75;;
31724;SDS011;18306;40.960;14.836;2022-08-03T07:09:55;6.68;;;4.93;;
31724;SDS011;18306;40.960;14.836;2022-08-03T07:12:22;17.17;;;6.38;;
31724;SDS011;18306;40.960;14.836;2022-08-03T07:14:50;26.25;;;5.78;;
31724;SDS011;18306;40.960;14.836;2022-08-03T07:17:20;10.00;;;5.60;;
31724;SDS011;18306;40.960;14.836;2022-08-03T07:19:47;12.98;;;4.55;;
31724;SDS011;18306;40.960;14.836;2022-08-03T07:22:14;8.50;;;4.47;;
31724;SDS011;18306;40.960;14.836;2022-08-03T07:24:41;6.45;;;3.45;;
31724;SDS011;18306;40.960;14.836;2022-08-03T07:27:31;9.50;;;3.55;;
31724;SDS011;18306;40.960;14.836;2022-08-03T07:29:58;10.07;;;3.88;;
31724;SDS011;18306;40.960;14.836;2022-08-03T07:32:27;8.05;;;3.15;;
31724;SDS011;18306;40.960;14.836;2022-08-03T07:34:56;2.63;;;2.15;;
31724;SDS011;18306;40.960;14.836;2022-08-03T07:37:23;3.60;;;2.00;;
31724;SDS011;18306;40.960;14.836;2022-08-03T07:39:50;3.30;;;1.40;;
31724;SDS011;18306;40.960;14.836;2022-08-03T07:42:17;8.07;;;1.23;;
31724;SDS011;18306;40.960;14.836;2022-08-03T07:44:45;4.13;;;0.95;;
31724;SDS011;18306;40.960;14.836;2022-08-03T07:47:16;0.80;;;0.80;;
31724;SDS011;18306;40.960;14.836;2022-08-03T07:49:48;0.93;;;0.85;;
31724;SDS011;18306;40.960;14.836;2022-08-03T07:52:16;2.70;;;1.52;;
31724;SDS011;18306;40.960;14.836;2022-08-03T07:55:02;2.38;;;1.00;;
31724;SDS011;18306;40.960;14.836;2022-08-03T07:57:31;3.85;;;2.55;;
31724;SDS011;18306;40.960;14.836;2022-08-03T07:59:59;1.23;;;0.95;;
31724;SDS011;18306;40.960;14.836;2022-08-03T08:02:26;2.50;;;1.27;;
31724;SDS011;18306;40.960;14.836;2022-08-03T08:04:53;4.15;;;1.77;;
31724;SDS011;18306;40.960;14.836;2022-08-03T08:07:20;5.80;;;2.10;;
31724;SDS011;18306;40.960;14.836;2022-08-03T08:09:48;4.75;;;1.60;;
31724;SDS011;18306;40.960;14.836;2022-08-03T08:12:15;3.08;;;1.85;;
31724;SDS011;18306;40.960;14.836;2022-08-03T08:14:42;6.30;;;1.58;;
31724;SDS011;18306;40.960;14.836;2022-08-03T08:17:12;8.00;;;1.52;;
31724;SDS011;18306;40.960;14.836;2022-08-03T08:19:40;1.95;;;1.48;;
31724;SDS011;18306;40.960;14.836;2022-08-03T08:22:07;3.92;;;1.63;;
31724;SDS011;18306;40.960;14.836;2022-08-03T08:24:34;4.15;;;2.05;;
31724;SDS011;18306;40.960;14.836;2022-08-03T08:27:01;3.03;;;1.45;;
31724;SDS011;18306;40.960;14.836;2022-08-03T08:29:32;4.28;;;1.42;;
31724;SDS011;18306;40.960;14.836;2022-08-03T08:32:01;3.47;;;1.35;;
31724;SDS011;18306;40.960;14.836;2022-08-03T08:34:29;2.38;;;1.33;;
31724;SDS011;18306;40.960;14.836;2022-08-03T08:36:57;1.98;;;1.15;;
31724;SDS011;18306;40.960;14.836;2022-08-03T08:39:24;1.88;;;1.00;;
31724;SDS011;18306;40.960;14.836;2022-08-03T08:41:51;1.95;;;1.13;;
31724;SDS011;18306;40.960;14.836;2022-08-03T08:44:20;0.73;;;0.70;;
31724;SDS011;18306;40.960;14.836;2022-08-03T08:46:54;1.08;;;1.05;;
31724;SDS011;18306;40.960;14.836;2022-08-03T08:49:29;2.95;;;0.93;;
31724;SDS011;18306;40.960;14.836;2022-08-03T08:52:03;0.88;;;0.88;;
31724;SDS011;18306;40.960;14.836;2022-08-03T08:54:33;0.60;;;0.60;;
31724;SDS011;18306;40.960;14.836;2022-08-03T08:57:02;3.20;;;1.20;;
31724;SDS011;18306;40.960;14.836;2022-08-03T08:59:34;3.25;;;1.02;;
31724;SDS011;18306;40.960;14.836;2022-08-03T09:02:02;1.17;;;1.08;;
31724;SDS011;18306;40.960;14.836;2022-08-03T09:04:29;1.40;;;0.68;;
31724;SDS011;18306;40.960;14.836;2022-08-03T09:06:57;1.23;;;0.75;;
31724;SDS011;18306;40.960;14.836;2022-08-03T09:09:24;1.15;;;1.05;;
31724;SDS011;18306;40.960;14.836;2022-08-03T09:11:51;0.68;;;0.68;;
31724;SDS011;18306;40.960;14.836;2022-08-03T09:14:19;0.85;;;0.77;;
31724;SDS011;18306;40.960;14.836;2022-08-03T09:16:56;2.88;;;1.30;;
31724;SDS011;18306;40.960;14.836;2022-08-03T09:19:26;1.35;;;0.65;;
31724;SDS011;18306;40.960;14.836;2022-08-03T09:22:14;4.80;;;1.23;;
31724;SDS011;18306;40.960;14.836;2022-08-03T09:24:56;1.77;;;1.25;;
31724;SDS011;18306;40.960;14.836;2022-08-03T09:27:28;6.07;;;1.23;;
31724;SDS011;18306;40.960;14.836;2022-08-03T09:29:58;3.75;;;1.15;;
31724;SDS011;18306;40.960;14.836;2022-08-03T09:32:25;0.95;;;0.85;;
31724;SDS011;18306;40.960;14.836;2022-08-03T09:34:53;1.48;;;1.20;;
31724;SDS011;18306;40.960;14.836;2022-08-03T09:38:12;1.15;;;0.90;;
31724;SDS011;18306;40.960;14.836;2022-08-03T09:40:44;1.15;;;0.80;;
31724;SDS011;18306;40.960;14.836;2022-08-03T09:43:12;3.38;;;1.30;;
31724;SDS011;18306;40.960;14.836;2022-08-03T09:45:40;1.20;;;1.10;;
31724;SDS011;18306;40.960;14.836;2022-08-03T09:48:22;0.90;;;0.88;;
31724;SDS011;18306;40.960;14.836;2022-08-03T09:50:53;0.82;;;0.65;;
31724;SDS011;18306;40.960;14.836;2022-08-03T09:53:26;0.80;;;0.70;;
31724;SDS011;18306;40.960;14.836;2022-08-03T09:55:58;0.88;;;0.82;;
31724;SDS011;18306;40.960;14.836;2022-08-03T09:58:28;1.63;;;1.02;;
31724;SDS011;18306;40.960;14.836;2022-08-03T10:00:57;1.10;;;0.95;;
31724;SDS011;18306;40.960;14.836;2022-08-03T10:03:27;1.10;;;1.00;;
31724;SDS011;18306;40.960;14.836;2022-08-03T10:05:55;0.85;;;0.55;;
31724;SDS011;18306;40.960;14.836;2022-08-03T10:08:23;1.30;;;0.73;;
31724;SDS011;18306;40.960;14.836;2022-08-03T10:10:52;2.15;;;1.13;;
31724;SDS011;18306;40.960;14.836;2022-08-03T10:13:20;1.05;;;1.05;;
31724;SDS011;18306;40.960;14.836;2022-08-03T10:15:48;2.38;;;0.50;;
31724;SDS011;18306;40.960;14.836;2022-08-03T10:18:18;0.55;;;0.55;;
31724;SDS011;18306;40.960;14.836;2022-08-03T10:20:58;1.85;;;1.15;;
31724;SDS011;18306;40.960;14.836;2022-08-03T10:23:47;1.80;;;0.80;;
31724;SDS011;18306;40.960;14.836;2022-08-03T10:29:27;0.75;;;0.68;;
31724;SDS011;18306;40.960;14.836;2022-08-03T10:35:03;3.58;;;1.17;;
31724;SDS011;18306;40.960;14.836;2022-08-03T10:37:31;0.65;;;0.65;;
31724;SDS011;18306;40.960;14.836;2022-08-03T10:40:03;1.02;;;0.73;;
31724;SDS011;18306;40.960;14.836;2022-08-03T10:42:38;1.10;;;0.90;;
31724;SDS011;18306;40.960;14.836;2022-08-03T10:45:18;0.68;;;0.68;;
31724;SDS011;18306;40.960;14.836;2022-08-03T10:47:54;2.42;;;1.35;;
31724;SDS011;18306;40.960;14.836;2022-08-03T10:50:23;1.50;;;0.93;;
31724;SDS011;18306;40.960;14.836;2022-08-03T10:52:59;1.10;;;1.00;;
31724;SDS011;18306;40.960;14.836;2022-08-03T10:55:33;0.80;;;0.65;;
31724;SDS011;18306;40.960;14.836;2022-08-03T11:01:04;0.77;;;0.68;;
31724;SDS011;18306;40.960;14.836;2022-08-03T11:09:12;1.13;;;0.82;;
31724;SDS011;18306;40.960;14.836;2022-08-03T11:11:37;0.60;;;0.60;;
31724;SDS011;18306;40.960;14.836;2022-08-03T11:14:07;1.10;;;0.90;;
31724;SDS011;18306;40.960;14.836;2022-08-03T11:16:42;1.17;;;1.05;;
31724;SDS011;18306;40.960;14.836;2022-08-03T11:19:14;2.20;;;1.00;;
31724;SDS011;18306;40.960;14.836;2022-08-03T11:27:21;1.33;;;1.02;;
31724;SDS011;18306;40.960;14.836;2022-08-03T11:35:28;1.38;;;0.82;;
31724;SDS011;18306;40.960;14.836;2022-08-03T11:38:02;2.97;;;1.08;;
31724;SDS011;18306;40.960;14.836;2022-08-03T11:40:44;1.60;;;0.80;;
31724;SDS011;18306;40.960;14.836;2022-08-03T11:46:09;2.75;;;1.30;;
31724;SDS011;18306;40.960;14.836;2022-08-03T11:48:39;1.52;;;0.93;;
31724;SDS011;18306;40.960;14.836;2022-08-03T11:51:22;0.73;;;0.73;;
31724;SDS011;18306;40.960;14.836;2022-08-03T11:53:55;0.70;;;0.70;;
31724;SDS011;18306;40.960;14.836;2022-08-03T11:56:41;0.82;;;0.82;;
31724;SDS011;18306;40.960;14.836;2022-08-03T11:59:17;0.75;;;0.70;;
31724;SDS011;18306;40.960;14.836;2022-08-03T12:02:09;1.90;;;1.13;;
31724;SDS011;18306;40.960;14.836;2022-08-03T12:04:51;0.73;;;0.73;;
31724;SDS011;18306;40.960;14.836;2022-08-03T12:07:27;1.88;;;0.88;;
31724;SDS011;18306;40.960;14.836;2022-08-03T12:12:33;1.73;;;0.93;;
31724;SDS011;18306;40.960;14.836;2022-08-03T12:15:04;0.50;;;0.50;;
31724;SDS011;18306;40.960;14.836;2022-08-03T12:17:32;0.55;;;0.55;;
31724;SDS011;18306;40.960;14.836;2022-08-03T12:20:04;0.90;;;0.90;;
31724;SDS011;18306;40.960;14.836;2022-08-03T12:22:36;0.88;;;0.88;;
31724;SDS011;18306;40.960;14.836;2022-08-03T12:25:07;1.75;;;1.20;;
31724;SDS011;18306;40.960;14.836;2022-08-03T12:27:45;2.90;;;1.25;;
31724;SDS011;18306;40.960;14.836;2022-08-03T12:30:12;2.17;;;1.63;;
31724;SDS011;18306;40.960;14.836;2022-08-03T12:32:41;1.00;;;0.88;;
31724;SDS011;18306;40.960;14.836;2022-08-03T12:35:20;1.30;;;0.75;;
31724;SDS011;18306;40.960;14.836;2022-08-03T12:37:55;0.93;;;0.93;;
31724;SDS011;18306;40.960;14.836;2022-08-03T12:40:24;1.42;;;1.20;;
31724;SDS011;18306;40.960;14.836;2022-08-03T12:42:54;1.17;;;1.08;;
31724;SDS011;18306;40.960;14.836;2022-08-03T12:47:53;2.85;;;1.25;;
31724;SDS011;18306;40.960;14.836;2022-08-03T12:50:24;2.30;;;1.15;;
31724;SDS011;18306;40.960;14.836;2022-08-03T12:52:51;1.70;;;1.40;;
31724;SDS011;18306;40.960;14.836;2022-08-03T12:55:23;1.88;;;1.30;;
31724;SDS011;18306;40.960;14.836;2022-08-03T12:58:03;2.70;;;1.30;;
31724;SDS011;18306;40.960;14.836;2022-08-03T13:00:53;1.17;;;0.65;;
31724;SDS011;18306;40.960;14.836;2022-08-03T13:03:23;5.35;;;1.23;;
31724;SDS011;18306;40.960;14.836;2022-08-03T13:05:53;2.42;;;1.33;;
31724;SDS011;18306;40.960;14.836;2022-08-03T13:08:23;7.82;;;1.73;;
31724;SDS011;18306;40.960;14.836;2022-08-03T13:10:52;2.38;;;1.33;;
31724;SDS011;18306;40.960;14.836;2022-08-03T13:13:37;1.77;;;1.52;;
31724;SDS011;18306;40.960;14.836;2022-08-03T13:16:05;1.50;;;1.20;;
31724;SDS011;18306;40.960;14.836;2022-08-03T13:18:32;1.13;;;0.88;;
31724;SDS011;18306;40.960;14.836;2022-08-03T13:21:02;1.30;;;1.17;;
31724;SDS011;18306;40.960;14.836;2022-08-03T13:23:35;1.20;;;1.10;;
31724;SDS011;18306;40.960;14.836;2022-08-03T13:26:02;10.50;;;1.50;;
31724;SDS011;18306;40.960;14.836;2022-08-03T13:28:29;1.77;;;1.25;;
31724;SDS011;18306;40.960;14.836;2022-08-03T13:30:56;1.60;;;1.05;;
31724;SDS011;18306;40.960;14.836;2022-08-03T13:33:25;2.25;;;1.10;;
31724;SDS011;18306;40.960;14.836;2022-08-03T13:35:53;1.33;;;1.23;;
31724;SDS011;18306;40.960;14.836;2022-08-03T13:38:22;3.92;;;1.63;;
31724;SDS011;18306;40.960;14.836;2022-08-03T13:40:58;1.77;;;0.98;;
31724;SDS011;18306;40.960;14.836;2022-08-03T13:46:00;1.98;;;1.67;;
31724;SDS011;18306;40.960;14.836;2022-08-03T13:48:30;1.98;;;0.93;;
31724;SDS011;18306;40.960;14.836;2022-08-03T13:50:58;1.17;;;1.05;;
31724;SDS011;18306;40.960;14.836;2022-08-03T13:53:25;2.50;;;1.17;;
31724;SDS011;18306;40.960;14.836;2022-08-03T13:55:52;1.30;;;1.23;;
31724;SDS011;18306;40.960;14.836;2022-08-03T13:58:25;1.92;;;1.20;;
31724;SDS011;18306;40.960;14.836;2022-08-03T14:00:52;3.05;;;1.00;;
31724;SDS011;18306;40.960;14.836;2022-08-03T14:03:19;1.23;;;1.10;;
31724;SDS011;18306;40.960;14.836;2022-08-03T14:05:48;1.10;;;1.00;;
31724;SDS011;18306;40.960;14.836;2022-08-03T14:08:15;1.10;;;1.02;;
31724;SDS011;18306;40.960;14.836;2022-08-03T14:10:43;1.10;;;1.00;;
31724;SDS011;18306;40.960;14.836;2022-08-03T14:13:11;1.30;;;0.90;;
31724;SDS011;18306;40.960;14.836;2022-08-03T14:15:40;2.92;;;1.27;;
31724;SDS011;18306;40.960;14.836;2022-08-03T14:18:11;2.00;;;1.30;;
31724;SDS011;18306;40.960;14.836;2022-08-03T14:20:40;1.90;;;1.20;;
31724;SDS011;18306;40.960;14.836;2022-08-03T14:23:07;1.10;;;0.80;;
31724;SDS011;18306;40.960;14.836;2022-08-03T14:25:35;1.55;;;0.95;;
31724;SDS011;18306;40.960;14.836;2022-08-03T14:28:02;0.93;;;0.90;;
31724;SDS011;18306;40.960;14.836;2022-08-03T14:30:30;6.72;;;1.15;;
31724;SDS011;18306;40.960;14.836;2022-08-03T14:33:02;1.17;;;1.10;;
31724;SDS011;18306;40.960;14.836;2022-08-03T14:35:29;4.38;;;2.05;;
31724;SDS011;18306;40.960;14.836;2022-08-03T14:38:20;1.95;;;1.75;;
31724;SDS011;18306;40.960;14.836;2022-08-03T14:40:48;4.32;;;1.10;;
31724;SDS011;18306;40.960;14.836;2022-08-03T14:43:17;1.35;;;1.25;;
31724;SDS011;18306;40.960;14.836;2022-08-03T14:45:50;1.23;;;1.13;;
31724;SDS011;18306;40.960;14.836;2022-08-03T14:48:20;2.45;;;1.55;;
31724;SDS011;18306;40.960;14.836;2022-08-03T14:50:49;1.30;;;1.20;;
31724;SDS011;18306;40.960;14.836;2022-08-03T14:53:21;1.42;;;1.20;;
31724;SDS011;18306;40.960;14.836;2022-08-03T14:55:48;2.50;;;1.20;;
31724;SDS011;18306;40.960;14.836;2022-08-03T14:58:18;2.38;;;1.15;;
31724;SDS011;18306;40.960;14.836;2022-08-03T15:00:46;2.05;;;1.23;;
31724;SDS011;18306;40.960;14.836;2022-08-03T15:03:14;1.52;;;1.42;;
31724;SDS011;18306;40.960;14.836;2022-08-03T15:05:49;4.60;;;1.35;;
31724;SDS011;18306;40.960;14.836;2022-08-03T15:08:22;1.40;;;1.20;;
31724;SDS011;18306;40.960;14.836;2022-08-03T15:10:51;1.55;;;1.17;;
31724;SDS011;18306;40.960;14.836;2022-08-03T15:13:19;2.15;;;0.93;;
31724;SDS011;18306;40.960;14.836;2022-08-03T15:15:47;1.10;;;1.10;;
31724;SDS011;18306;40.960;14.836;2022-08-03T15:18:15;1.33;;;0.90;;
31724;SDS011;18306;40.960;14.836;2022-08-03T15:20:42;3.03;;;1.30;;
31724;SDS011;18306;40.960;14.836;2022-08-03T15:23:09;3.63;;;1.20;;
31724;SDS011;18306;40.960;14.836;2022-08-03T15:25:37;1.83;;;0.98;;
31724;SDS011;18306;40.960;14.836;2022-08-03T15:28:04;13.50;;;2.45;;
31724;SDS011;18306;40.960;14.836;2022-08-03T15:30:31;9.50;;;2.22;;
31724;SDS011;18306;40.960;14.836;2022-08-03T15:33:21;5.05;;;2.28;;
31724;SDS011;18306;40.960;14.836;2022-08-03T15:35:50;8.05;;;2.45;;
31724;SDS011;18306;40.960;14.836;2022-08-03T15:38:18;5.93;;;2.13;;
31724;SDS011;18306;40.960;14.836;2022-08-03T15:40:48;9.20;;;3.10;;
31724;SDS011;18306;40.960;14.836;2022-08-03T15:43:15;8.80;;;2.50;;
31724;SDS011;18306;40.960;14.836;2022-08-03T15:45:42;4.28;;;2.15;;
31724;SDS011;18306;40.960;14.836;2022-08-03T15:48:10;8.25;;;2.72;;